sim
Sign-in with your pilot id or email,
or register
Callsign
Passwort

Schedule Details

Flight Number: RYR8968 (1)
Departure: Athens Eleftherios Venizelos (LGAV) at 05:05
Arrival: Thessaloniki International Airport (LGTS) at 06:05
Route: Ryanair Passenger Schedule. Enter filed route here before submitting Pirep.

Weather Information
Getting current METAR information for LGAV 211820Z 35004KT CAVOK 27/10 Q1016 NOSIG
Getting current METAR information for LGTS 211820Z 10005KT CAVOK 27/13 Q1016 NOSIG

Schedule Frequency

Route Map